sensor_id;sensor_type;location;lat;lon;timestamp;P1;durP1;ratioP1;P2;durP2;ratioP2
28245;SDS011;15510;52.512;13.300;2024-01-06T00:01:29;44.00;;;21.43;;
28245;SDS011;15510;52.512;13.300;2024-01-06T00:03:55;40.40;;;21.87;;
28245;SDS011;15510;52.512;13.300;2024-01-06T00:06:20;40.00;;;21.27;;
28245;SDS011;15510;52.512;13.300;2024-01-06T00:08:47;37.77;;;21.17;;
28245;SDS011;15510;52.512;13.300;2024-01-06T00:11:19;39.03;;;20.67;;
28245;SDS011;15510;52.512;13.300;2024-01-06T00:13:45;38.13;;;20.57;;
28245;SDS011;15510;52.512;13.300;2024-01-06T00:16:11;38.77;;;20.63;;
28245;SDS011;15510;52.512;13.300;2024-01-06T00:18:37;37.53;;;21.40;;
28245;SDS011;15510;52.512;13.300;2024-01-06T00:21:04;39.97;;;21.90;;
28245;SDS011;15510;52.512;13.300;2024-01-06T00:23:29;35.10;;;20.53;;
28245;SDS011;15510;52.512;13.300;2024-01-06T00:25:56;39.70;;;21.13;;
28245;SDS011;15510;52.512;13.300;2024-01-06T00:28:21;37.03;;;20.43;;
28245;SDS011;15510;52.512;13.300;2024-01-06T00:30:47;40.37;;;21.40;;
28245;SDS011;15510;52.512;13.300;2024-01-06T00:33:13;39.57;;;20.57;;
28245;SDS011;15510;52.512;13.300;2024-01-06T00:35:39;35.37;;;19.93;;
28245;SDS011;15510;52.512;13.300;2024-01-06T00:38:05;33.83;;;19.47;;
28245;SDS011;15510;52.512;13.300;2024-01-06T00:40:30;31.63;;;19.53;;
28245;SDS011;15510;52.512;13.300;2024-01-06T00:42:57;35.27;;;19.40;;
28245;SDS011;15510;52.512;13.300;2024-01-06T00:45:24;34.70;;;20.30;;
28245;SDS011;15510;52.512;13.300;2024-01-06T00:47:49;39.00;;;20.70;;
28245;SDS011;15510;52.512;13.300;2024-01-06T00:50:15;37.80;;;20.47;;
28245;SDS011;15510;52.512;13.300;2024-01-06T00:52:42;35.67;;;19.57;;
28245;SDS011;15510;52.512;13.300;2024-01-06T00:55:08;36.47;;;20.23;;
28245;SDS011;15510;52.512;13.300;2024-01-06T00:57:34;34.67;;;19.97;;
28245;SDS011;15510;52.512;13.300;2024-01-06T00:59:59;37.37;;;19.23;;
28245;SDS011;15510;52.512;13.300;2024-01-06T01:02:25;36.93;;;20.53;;
28245;SDS011;15510;52.512;13.300;2024-01-06T01:04:51;33.33;;;19.17;;
28245;SDS011;15510;52.512;13.300;2024-01-06T01:07:17;41.50;;;19.17;;
28245;SDS011;15510;52.512;13.300;2024-01-06T01:09:43;35.23;;;18.93;;
28245;SDS011;15510;52.512;13.300;2024-01-06T01:12:09;33.70;;;18.70;;
28245;SDS011;15510;52.512;13.300;2024-01-06T01:14:34;30.30;;;18.40;;
28245;SDS011;15510;52.512;13.300;2024-01-06T01:17:00;32.40;;;19.43;;
28245;SDS011;15510;52.512;13.300;2024-01-06T01:19:26;33.13;;;18.17;;
28245;SDS011;15510;52.512;13.300;2024-01-06T01:21:51;38.13;;;17.53;;
28245;SDS011;15510;52.512;13.300;2024-01-06T01:24:23;34.27;;;19.47;;
28245;SDS011;15510;52.512;13.300;2024-01-06T01:26:49;35.47;;;17.93;;
28245;SDS011;15510;52.512;13.300;2024-01-06T01:29:16;34.80;;;17.77;;
28245;SDS011;15510;52.512;13.300;2024-01-06T01:31:42;31.20;;;17.63;;
28245;SDS011;15510;52.512;13.300;2024-01-06T01:34:08;32.30;;;17.33;;
28245;SDS011;15510;52.512;13.300;2024-01-06T01:36:33;34.50;;;18.30;;
28245;SDS011;15510;52.512;13.300;2024-01-06T01:38:59;31.87;;;18.43;;
28245;SDS011;15510;52.512;13.300;2024-01-06T01:41:25;35.43;;;18.87;;
28245;SDS011;15510;52.512;13.300;2024-01-06T01:43:51;35.97;;;18.17;;
28245;SDS011;15510;52.512;13.300;2024-01-06T01:46:26;30.83;;;18.60;;
28245;SDS011;15510;52.512;13.300;2024-01-06T01:48:56;31.70;;;18.17;;
28245;SDS011;15510;52.512;13.300;2024-01-06T01:51:24;33.70;;;17.23;;
28245;SDS011;15510;52.512;13.300;2024-01-06T01:53:53;33.97;;;16.70;;
28245;SDS011;15510;52.512;13.300;2024-01-06T01:56:20;32.47;;;18.43;;
28245;SDS011;15510;52.512;13.300;2024-01-06T01:58:46;33.37;;;18.57;;
28245;SDS011;15510;52.512;13.300;2024-01-06T02:01:13;29.97;;;17.20;;
28245;SDS011;15510;52.512;13.300;2024-01-06T02:03:43;34.47;;;19.13;;
28245;SDS011;15510;52.512;13.300;2024-01-06T02:06:09;29.73;;;17.43;;
28245;SDS011;15510;52.512;13.300;2024-01-06T02:08:35;42.27;;;23.63;;
28245;SDS011;15510;52.512;13.300;2024-01-06T02:11:02;39.17;;;21.13;;
28245;SDS011;15510;52.512;13.300;2024-01-06T02:13:32;31.33;;;17.23;;
28245;SDS011;15510;52.512;13.300;2024-01-06T02:16:00;31.07;;;18.07;;
28245;SDS011;15510;52.512;13.300;2024-01-06T02:18:26;33.77;;;18.00;;
28245;SDS011;15510;52.512;13.300;2024-01-06T02:20:52;39.67;;;22.13;;
28245;SDS011;15510;52.512;13.300;2024-01-06T02:23:20;33.30;;;17.13;;
28245;SDS011;15510;52.512;13.300;2024-01-06T02:25:46;44.30;;;23.23;;
28245;SDS011;15510;52.512;13.300;2024-01-06T02:28:12;43.90;;;21.77;;
28245;SDS011;15510;52.512;13.300;2024-01-06T02:30:37;33.17;;;18.73;;
28245;SDS011;15510;52.512;13.300;2024-01-06T02:33:03;36.77;;;18.00;;
28245;SDS011;15510;52.512;13.300;2024-01-06T02:35:29;28.83;;;17.30;;
28245;SDS011;15510;52.512;13.300;2024-01-06T02:37:55;26.70;;;15.73;;
28245;SDS011;15510;52.512;13.300;2024-01-06T02:40:20;29.77;;;17.50;;
28245;SDS011;15510;52.512;13.300;2024-01-06T02:42:46;31.90;;;18.13;;
28245;SDS011;15510;52.512;13.300;2024-01-06T02:45:12;32.37;;;15.93;;
28245;SDS011;15510;52.512;13.300;2024-01-06T02:47:37;30.60;;;16.07;;
28245;SDS011;15510;52.512;13.300;2024-01-06T02:50:03;30.93;;;17.23;;
28245;SDS011;15510;52.512;13.300;2024-01-06T02:52:30;31.77;;;16.57;;
28245;SDS011;15510;52.512;13.300;2024-01-06T02:54:55;28.20;;;15.90;;
28245;SDS011;15510;52.512;13.300;2024-01-06T02:57:21;30.03;;;16.33;;
28245;SDS011;15510;52.512;13.300;2024-01-06T02:59:47;34.37;;;17.60;;
28245;SDS011;15510;52.512;13.300;2024-01-06T03:02:12;27.93;;;16.70;;
28245;SDS011;15510;52.512;13.300;2024-01-06T03:04:38;32.30;;;17.47;;
28245;SDS011;15510;52.512;13.300;2024-01-06T03:07:04;28.80;;;16.17;;
28245;SDS011;15510;52.512;13.300;2024-01-06T03:09:29;29.77;;;16.30;;
28245;SDS011;15510;52.512;13.300;2024-01-06T03:11:55;29.00;;;15.67;;
28245;SDS011;15510;52.512;13.300;2024-01-06T03:14:21;34.93;;;17.20;;
28245;SDS011;15510;52.512;13.300;2024-01-06T03:16:46;32.43;;;15.93;;
28245;SDS011;15510;52.512;13.300;2024-01-06T03:19:12;32.47;;;16.47;;
28245;SDS011;15510;52.512;13.300;2024-01-06T03:21:38;27.90;;;16.87;;
28245;SDS011;15510;52.512;13.300;2024-01-06T03:24:04;31.30;;;16.60;;
28245;SDS011;15510;52.512;13.300;2024-01-06T03:26:30;29.80;;;15.27;;
28245;SDS011;15510;52.512;13.300;2024-01-06T03:28:56;31.67;;;16.23;;
28245;SDS011;15510;52.512;13.300;2024-01-06T03:31:23;29.27;;;16.50;;
28245;SDS011;15510;52.512;13.300;2024-01-06T03:33:49;35.00;;;18.10;;
28245;SDS011;15510;52.512;13.300;2024-01-06T03:36:15;30.40;;;16.90;;
28245;SDS011;15510;52.512;13.300;2024-01-06T03:38:42;32.60;;;17.10;;
28245;SDS011;15510;52.512;13.300;2024-01-06T03:41:07;34.67;;;17.47;;
28245;SDS011;15510;52.512;13.300;2024-01-06T03:43:33;29.30;;;18.23;;
28245;SDS011;15510;52.512;13.300;2024-01-06T03:45:59;29.50;;;16.27;;
28245;SDS011;15510;52.512;13.300;2024-01-06T03:48:25;34.33;;;17.57;;
28245;SDS011;15510;52.512;13.300;2024-01-06T03:50:51;31.13;;;16.53;;
28245;SDS011;15510;52.512;13.300;2024-01-06T03:53:17;32.37;;;16.80;;
28245;SDS011;15510;52.512;13.300;2024-01-06T03:55:43;33.63;;;17.07;;
28245;SDS011;15510;52.512;13.300;2024-01-06T03:58:08;30.23;;;17.10;;
28245;SDS011;15510;52.512;13.300;2024-01-06T04:00:34;33.77;;;16.77;;
28245;SDS011;15510;52.512;13.300;2024-01-06T04:03:00;30.97;;;16.83;;
28245;SDS011;15510;52.512;13.300;2024-01-06T04:05:26;30.07;;;16.43;;
28245;SDS011;15510;52.512;13.300;2024-01-06T04:07:51;35.50;;;17.90;;
28245;SDS011;15510;52.512;13.300;2024-01-06T04:10:17;33.87;;;16.03;;
28245;SDS011;15510;52.512;13.300;2024-01-06T04:12:43;37.17;;;18.40;;
28245;SDS011;15510;52.512;13.300;2024-01-06T04:15:09;31.33;;;17.73;;
28245;SDS011;15510;52.512;13.300;2024-01-06T04:17:34;41.27;;;17.90;;
28245;SDS011;15510;52.512;13.300;2024-01-06T04:20:00;33.73;;;17.53;;
28245;SDS011;15510;52.512;13.300;2024-01-06T04:22:26;34.97;;;18.23;;
28245;SDS011;15510;52.512;13.300;2024-01-06T04:24:51;31.27;;;16.80;;
28245;SDS011;15510;52.512;13.300;2024-01-06T04:27:17;32.93;;;18.30;;
28245;SDS011;15510;52.512;13.300;2024-01-06T04:29:43;33.37;;;18.13;;
28245;SDS011;15510;52.512;13.300;2024-01-06T04:32:09;34.67;;;19.03;;
28245;SDS011;15510;52.512;13.300;2024-01-06T04:34:37;32.73;;;17.37;;
28245;SDS011;15510;52.512;13.300;2024-01-06T04:37:05;30.47;;;17.90;;
28245;SDS011;15510;52.512;13.300;2024-01-06T04:39:33;35.03;;;18.20;;
28245;SDS011;15510;52.512;13.300;2024-01-06T04:42:05;32.30;;;17.43;;
28245;SDS011;15510;52.512;13.300;2024-01-06T04:44:31;33.87;;;17.63;;
28245;SDS011;15510;52.512;13.300;2024-01-06T04:47:00;35.63;;;18.40;;
28245;SDS011;15510;52.512;13.300;2024-01-06T04:49:26;36.23;;;18.43;;
28245;SDS011;15510;52.512;13.300;2024-01-06T04:51:51;36.40;;;18.33;;
28245;SDS011;15510;52.512;13.300;2024-01-06T04:54:17;35.43;;;17.87;;
28245;SDS011;15510;52.512;13.300;2024-01-06T04:56:43;34.73;;;18.53;;
28245;SDS011;15510;52.512;13.300;2024-01-06T04:59:15;38.27;;;18.40;;
28245;SDS011;15510;52.512;13.300;2024-01-06T05:01:41;33.77;;;18.27;;
28245;SDS011;15510;52.512;13.300;2024-01-06T05:04:07;34.60;;;18.33;;
28245;SDS011;15510;52.512;13.300;2024-01-06T05:06:32;39.90;;;18.87;;
28245;SDS011;15510;52.512;13.300;2024-01-06T05:08:59;39.10;;;18.63;;
28245;SDS011;15510;52.512;13.300;2024-01-06T05:11:25;33.40;;;18.37;;
28245;SDS011;15510;52.512;13.300;2024-01-06T05:13:54;34.63;;;18.70;;
28245;SDS011;15510;52.512;13.300;2024-01-06T05:16:20;35.87;;;18.40;;
28245;SDS011;15510;52.512;13.300;2024-01-06T05:18:46;34.53;;;18.40;;
28245;SDS011;15510;52.512;13.300;2024-01-06T05:21:11;38.53;;;18.80;;
28245;SDS011;15510;52.512;13.300;2024-01-06T05:23:37;41.93;;;19.23;;
28245;SDS011;15510;52.512;13.300;2024-01-06T05:26:03;36.77;;;18.97;;
28245;SDS011;15510;52.512;13.300;2024-01-06T05:28:30;36.40;;;18.70;;
28245;SDS011;15510;52.512;13.300;2024-01-06T05:30:56;37.83;;;19.50;;
28245;SDS011;15510;52.512;13.300;2024-01-06T05:33:30;38.13;;;19.60;;
28245;SDS011;15510;52.512;13.300;2024-01-06T05:35:56;35.70;;;19.70;;
28245;SDS011;15510;52.512;13.300;2024-01-06T05:38:22;38.43;;;19.80;;
28245;SDS011;15510;52.512;13.300;2024-01-06T05:40:48;36.53;;;19.43;;
28245;SDS011;15510;52.512;13.300;2024-01-06T05:43:13;39.97;;;19.57;;
28245;SDS011;15510;52.512;13.300;2024-01-06T05:45:39;43.23;;;19.10;;
28245;SDS011;15510;52.512;13.300;2024-01-06T05:48:10;38.10;;;18.80;;
28245;SDS011;15510;52.512;13.300;2024-01-06T05:50:37;36.83;;;19.23;;
28245;SDS011;15510;52.512;13.300;2024-01-06T05:53:04;38.63;;;19.63;;
28245;SDS011;15510;52.512;13.300;2024-01-06T05:55:30;37.07;;;19.47;;
28245;SDS011;15510;52.512;13.300;2024-01-06T05:57:56;44.43;;;21.83;;
28245;SDS011;15510;52.512;13.300;2024-01-06T06:00:22;42.90;;;21.43;;
28245;SDS011;15510;52.512;13.300;2024-01-06T06:02:48;43.20;;;20.17;;
28245;SDS011;15510;52.512;13.300;2024-01-06T06:05:14;43.70;;;21.03;;
28245;SDS011;15510;52.512;13.300;2024-01-06T06:07:40;38.80;;;20.03;;
28245;SDS011;15510;52.512;13.300;2024-01-06T06:10:06;39.00;;;20.13;;
28245;SDS011;15510;52.512;13.300;2024-01-06T06:12:37;41.40;;;19.13;;
28245;SDS011;15510;52.512;13.300;2024-01-06T06:15:03;38.33;;;20.63;;
28245;SDS011;15510;52.512;13.300;2024-01-06T06:17:30;41.90;;;20.30;;
28245;SDS011;15510;52.512;13.300;2024-01-06T06:19:56;41.33;;;20.93;;
28245;SDS011;15510;52.512;13.300;2024-01-06T06:22:27;38.40;;;20.40;;
28245;SDS011;15510;52.512;13.300;2024-01-06T06:25:00;36.97;;;21.80;;
28245;SDS011;15510;52.512;13.300;2024-01-06T06:27:26;36.33;;;19.13;;
28245;SDS011;15510;52.512;13.300;2024-01-06T06:29:55;39.03;;;19.63;;
28245;SDS011;15510;52.512;13.300;2024-01-06T06:32:24;40.20;;;21.37;;
28245;SDS011;15510;52.512;13.300;2024-01-06T06:34:52;38.10;;;19.83;;
28245;SDS011;15510;52.512;13.300;2024-01-06T06:37:18;35.00;;;18.57;;
28245;SDS011;15510;52.512;13.300;2024-01-06T06:39:50;39.57;;;20.40;;
28245;SDS011;15510;52.512;13.300;2024-01-06T06:42:16;38.53;;;19.30;;
28245;SDS011;15510;52.512;13.300;2024-01-06T06:44:42;37.33;;;19.03;;
28245;SDS011;15510;52.512;13.300;2024-01-06T06:47:07;40.90;;;19.27;;
28245;SDS011;15510;52.512;13.300;2024-01-06T06:49:33;36.53;;;18.90;;
28245;SDS011;15510;52.512;13.300;2024-01-06T06:51:59;40.73;;;19.17;;
28245;SDS011;15510;52.512;13.300;2024-01-06T06:54:25;33.33;;;18.17;;
28245;SDS011;15510;52.512;13.300;2024-01-06T06:56:51;41.07;;;18.97;;
28245;SDS011;15510;52.512;13.300;2024-01-06T06:59:22;40.40;;;19.57;;
28245;SDS011;15510;52.512;13.300;2024-01-06T07:01:48;41.60;;;18.67;;
28245;SDS011;15510;52.512;13.300;2024-01-06T07:04:14;36.73;;;18.30;;
28245;SDS011;15510;52.512;13.300;2024-01-06T07:06:40;35.27;;;17.97;;
28245;SDS011;15510;52.512;13.300;2024-01-06T07:09:06;34.13;;;18.37;;
28245;SDS011;15510;52.512;13.300;2024-01-06T07:11:34;33.43;;;16.83;;
28245;SDS011;15510;52.512;13.300;2024-01-06T07:14:00;36.77;;;18.23;;
28245;SDS011;15510;52.512;13.300;2024-01-06T07:16:26;37.70;;;18.23;;
28245;SDS011;15510;52.512;13.300;2024-01-06T07:18:52;36.40;;;18.57;;
28245;SDS011;15510;52.512;13.300;2024-01-06T07:21:18;35.10;;;17.17;;
28245;SDS011;15510;52.512;13.300;2024-01-06T07:23:48;37.63;;;19.00;;
28245;SDS011;15510;52.512;13.300;2024-01-06T07:26:16;35.53;;;17.67;;
28245;SDS011;15510;52.512;13.300;2024-01-06T07:28:42;42.63;;;19.03;;
28245;SDS011;15510;52.512;13.300;2024-01-06T07:31:08;40.50;;;19.23;;
28245;SDS011;15510;52.512;13.300;2024-01-06T07:33:34;40.43;;;19.13;;
28245;SDS011;15510;52.512;13.300;2024-01-06T07:36:00;36.10;;;17.47;;
28245;SDS011;15510;52.512;13.300;2024-01-06T07:38:25;40.50;;;19.43;;
28245;SDS011;15510;52.512;13.300;2024-01-06T07:40:51;36.43;;;18.57;;
28245;SDS011;15510;52.512;13.300;2024-01-06T07:43:18;44.67;;;19.50;;
28245;SDS011;15510;52.512;13.300;2024-01-06T07:45:44;39.27;;;20.43;;
28245;SDS011;15510;52.512;13.300;2024-01-06T07:48:10;35.43;;;19.03;;
28245;SDS011;15510;52.512;13.300;2024-01-06T07:50:35;42.43;;;19.77;;
28245;SDS011;15510;52.512;13.300;2024-01-06T07:53:01;40.13;;;19.70;;
28245;SDS011;15510;52.512;13.300;2024-01-06T07:55:27;43.50;;;20.17;;
28245;SDS011;15510;52.512;13.300;2024-01-06T07:57:54;38.77;;;19.67;;
28245;SDS011;15510;52.512;13.300;2024-01-06T08:00:20;38.90;;;19.23;;
28245;SDS011;15510;52.512;13.300;2024-01-06T08:02:45;38.00;;;18.07;;
28245;SDS011;15510;52.512;13.300;2024-01-06T08:05:11;42.17;;;20.50;;
28245;SDS011;15510;52.512;13.300;2024-01-06T08:07:37;39.90;;;20.20;;
28245;SDS011;15510;52.512;13.300;2024-01-06T08:10:04;39.77;;;18.70;;
28245;SDS011;15510;52.512;13.300;2024-01-06T08:12:31;43.73;;;20.00;;
28245;SDS011;15510;52.512;13.300;2024-01-06T08:14:57;36.77;;;19.03;;
28245;SDS011;15510;52.512;13.300;2024-01-06T08:17:22;41.57;;;20.67;;
28245;SDS011;15510;52.512;13.300;2024-01-06T08:19:50;37.53;;;18.97;;
28245;SDS011;15510;52.512;13.300;2024-01-06T08:22:16;40.50;;;20.10;;
28245;SDS011;15510;52.512;13.300;2024-01-06T08:24:42;44.30;;;21.03;;
28245;SDS011;15510;52.512;13.300;2024-01-06T08:27:08;56.83;;;27.50;;
28245;SDS011;15510;52.512;13.300;2024-01-06T08:29:33;52.30;;;26.17;;
28245;SDS011;15510;52.512;13.300;2024-01-06T08:32:00;45.37;;;25.30;;
28245;SDS011;15510;52.512;13.300;2024-01-06T08:34:26;40.03;;;20.93;;
28245;SDS011;15510;52.512;13.300;2024-01-06T08:36:52;39.37;;;19.30;;
28245;SDS011;15510;52.512;13.300;2024-01-06T08:39:18;36.00;;;19.20;;
28245;SDS011;15510;52.512;13.300;2024-01-06T08:41:43;41.27;;;19.37;;
28245;SDS011;15510;52.512;13.300;2024-01-06T08:44:10;43.87;;;21.60;;
28245;SDS011;15510;52.512;13.300;2024-01-06T08:46:36;42.80;;;20.07;;
28245;SDS011;15510;52.512;13.300;2024-01-06T08:49:01;42.17;;;20.10;;
28245;SDS011;15510;52.512;13.300;2024-01-06T08:51:28;46.47;;;19.67;;
28245;SDS011;15510;52.512;13.300;2024-01-06T08:53:53;38.57;;;19.87;;
28245;SDS011;15510;52.512;13.300;2024-01-06T08:56:19;38.57;;;19.53;;
28245;SDS011;15510;52.512;13.300;2024-01-06T08:58:45;38.50;;;18.57;;
28245;SDS011;15510;52.512;13.300;2024-01-06T09:01:12;41.77;;;19.33;;
28245;SDS011;15510;52.512;13.300;2024-01-06T09:03:38;36.80;;;18.33;;
28245;SDS011;15510;52.512;13.300;2024-01-06T09:06:04;41.90;;;18.87;;
28245;SDS011;15510;52.512;13.300;2024-01-06T09:08:30;45.40;;;20.30;;
28245;SDS011;15510;52.512;13.300;2024-01-06T09:10:56;45.13;;;20.47;;
28245;SDS011;15510;52.512;13.300;2024-01-06T09:13:23;41.27;;;20.37;;
28245;SDS011;15510;52.512;13.300;2024-01-06T09:15:50;40.97;;;18.33;;
28245;SDS011;15510;52.512;13.300;2024-01-06T09:18:19;36.07;;;18.80;;
28245;SDS011;15510;52.512;13.300;2024-01-06T09:20:45;35.37;;;17.80;;
28245;SDS011;15510;52.512;13.300;2024-01-06T09:23:13;38.07;;;19.07;;
28245;SDS011;15510;52.512;13.300;2024-01-06T09:25:39;39.37;;;19.03;;
28245;SDS011;15510;52.512;13.300;2024-01-06T09:28:07;39.83;;;18.70;;
28245;SDS011;15510;52.512;13.300;2024-01-06T09:30:33;32.33;;;18.13;;
28245;SDS011;15510;52.512;13.300;2024-01-06T09:32:59;40.00;;;18.83;;
28245;SDS011;15510;52.512;13.300;2024-01-06T09:35:25;40.73;;;18.47;;
28245;SDS011;15510;52.512;13.300;2024-01-06T09:37:50;42.83;;;19.67;;
28245;SDS011;15510;52.512;13.300;2024-01-06T09:40:21;40.27;;;18.43;;
28245;SDS011;15510;52.512;13.300;2024-01-06T09:42:48;33.17;;;18.13;;
28245;SDS011;15510;52.512;13.300;2024-01-06T09:45:18;38.37;;;18.83;;
28245;SDS011;15510;52.512;13.300;2024-01-06T09:47:49;44.07;;;22.67;;
28245;SDS011;15510;52.512;13.300;2024-01-06T09:50:19;42.27;;;20.17;;
28245;SDS011;15510;52.512;13.300;2024-01-06T09:52:46;36.73;;;19.00;;
28245;SDS011;15510;52.512;13.300;2024-01-06T09:55:22;36.17;;;17.87;;
28245;SDS011;15510;52.512;13.300;2024-01-06T09:57:50;46.17;;;22.63;;
28245;SDS011;15510;52.512;13.300;2024-01-06T10:00:16;42.37;;;21.40;;
28245;SDS011;15510;52.512;13.300;2024-01-06T10:02:43;41.37;;;21.83;;
28245;SDS011;15510;52.512;13.300;2024-01-06T10:05:09;38.53;;;19.33;;
28245;SDS011;15510;52.512;13.300;2024-01-06T10:07:37;36.37;;;18.07;;
28245;SDS011;15510;52.512;13.300;2024-01-06T10:10:03;35.37;;;18.27;;
28245;SDS011;15510;52.512;13.300;2024-01-06T10:12:29;36.57;;;18.87;;
28245;SDS011;15510;52.512;13.300;2024-01-06T10:14:54;35.97;;;18.97;;
28245;SDS011;15510;52.512;13.300;2024-01-06T10:17:23;36.50;;;18.87;;
28245;SDS011;15510;52.512;13.300;2024-01-06T10:19:48;36.03;;;19.20;;
28245;SDS011;15510;52.512;13.300;2024-01-06T10:22:16;37.73;;;18.10;;
28245;SDS011;15510;52.512;13.300;2024-01-06T10:24:42;34.57;;;18.53;;
28245;SDS011;15510;52.512;13.300;2024-01-06T10:27:08;34.73;;;19.10;;
28245;SDS011;15510;52.512;13.300;2024-01-06T10:29:34;35.43;;;17.90;;
28245;SDS011;15510;52.512;13.300;2024-01-06T10:32:00;34.67;;;18.17;;
28245;SDS011;15510;52.512;13.300;2024-01-06T10:34:26;38.83;;;18.77;;
28245;SDS011;15510;52.512;13.300;2024-01-06T10:36:54;36.73;;;17.93;;
28245;SDS011;15510;52.512;13.300;2024-01-06T10:39:20;34.73;;;18.70;;
28245;SDS011;15510;52.512;13.300;2024-01-06T10:41:50;38.53;;;17.63;;
28245;SDS011;15510;52.512;13.300;2024-01-06T10:44:17;32.27;;;17.67;;
28245;SDS011;15510;52.512;13.300;2024-01-06T10:46:44;35.90;;;18.70;;
28245;SDS011;15510;52.512;13.300;2024-01-06T10:49:10;31.37;;;17.67;;
28245;SDS011;15510;52.512;13.300;2024-01-06T10:51:37;31.20;;;18.10;;
28245;SDS011;15510;52.512;13.300;2024-01-06T10:54:04;33.10;;;17.87;;
28245;SDS011;15510;52.512;13.300;2024-01-06T10:56:37;33.27;;;18.67;;
28245;SDS011;15510;52.512;13.300;2024-01-06T10:59:06;33.83;;;18.73;;
28245;SDS011;15510;52.512;13.300;2024-01-06T11:01:33;33.07;;;17.10;;
28245;SDS011;15510;52.512;13.300;2024-01-06T11:04:01;32.30;;;18.47;;
28245;SDS011;15510;52.512;13.300;2024-01-06T11:06:28;30.43;;;17.17;;
28245;SDS011;15510;52.512;13.300;2024-01-06T11:11:46;34.70;;;17.43;;
28245;SDS011;15510;52.512;13.300;2024-01-06T11:14:17;32.60;;;18.63;;
28245;SDS011;15510;52.512;13.300;2024-01-06T11:16:49;30.77;;;17.57;;
28245;SDS011;15510;52.512;13.300;2024-01-06T11:24:53;31.27;;;16.47;;
28245;SDS011;15510;52.512;13.300;2024-01-06T11:27:25;30.13;;;17.87;;
28245;SDS011;15510;52.512;13.300;2024-01-06T11:29:57;33.87;;;18.33;;
28245;SDS011;15510;52.512;13.300;2024-01-06T11:32:32;34.17;;;18.73;;
28245;SDS011;15510;52.512;13.300;2024-01-06T11:35:05;33.93;;;18.33;;
28245;SDS011;15510;52.512;13.300;2024-01-06T11:40:10;29.33;;;16.83;;
28245;SDS011;15510;52.512;13.300;2024-01-06T11:42:46;31.43;;;18.67;;
28245;SDS011;15510;52.512;13.300;2024-01-06T11:45:21;34.00;;;17.77;;
28245;SDS011;15510;52.512;13.300;2024-01-06T11:47:47;31.77;;;17.53;;
28245;SDS011;15510;52.512;13.300;2024-01-06T11:50:14;32.63;;;18.40;;
28245;SDS011;15510;52.512;13.300;2024-01-06T11:52:40;29.33;;;16.67;;
28245;SDS011;15510;52.512;13.300;2024-01-06T11:55:06;34.10;;;17.00;;
28245;SDS011;15510;52.512;13.300;2024-01-06T11:57:34;33.13;;;18.30;;
28245;SDS011;15510;52.512;13.300;2024-01-06T12:00:00;31.37;;;17.20;;
28245;SDS011;15510;52.512;13.300;2024-01-06T12:02:26;32.50;;;17.03;;
28245;SDS011;15510;52.512;13.300;2024-01-06T12:04:52;35.13;;;17.70;;
28245;SDS011;15510;52.512;13.300;2024-01-06T12:07:21;33.97;;;19.03;;
28245;SDS011;15510;52.512;13.300;2024-01-06T12:09:48;35.40;;;17.83;;
28245;SDS011;15510;52.512;13.300;2024-01-06T12:12:17;28.97;;;17.13;;
28245;SDS011;15510;52.512;13.300;2024-01-06T12:14:43;29.67;;;17.40;;
28245;SDS011;15510;52.512;13.300;2024-01-06T12:17:11;34.20;;;19.07;;
28245;SDS011;15510;52.512;13.300;2024-01-06T12:19:38;37.90;;;18.27;;
28245;SDS011;15510;52.512;13.300;2024-01-06T12:22:10;32.43;;;17.27;;
28245;SDS011;15510;52.512;13.300;2024-01-06T12:24:38;30.83;;;17.00;;
28245;SDS011;15510;52.512;13.300;2024-01-06T12:27:06;29.03;;;17.60;;
28245;SDS011;15510;52.512;13.300;2024-01-06T12:29:37;35.27;;;17.97;;
28245;SDS011;15510;52.512;13.300;2024-01-06T12:32:05;33.40;;;18.47;;
28245;SDS011;15510;52.512;13.300;2024-01-06T12:34:34;32.20;;;17.77;;
28245;SDS011;15510;52.512;13.300;2024-01-06T12:37:00;34.17;;;18.97;;
28245;SDS011;15510;52.512;13.300;2024-01-06T12:39:30;30.63;;;17.23;;
28245;SDS011;15510;52.512;13.300;2024-01-06T12:41:56;30.00;;;16.10;;
28245;SDS011;15510;52.512;13.300;2024-01-06T12:44:22;29.93;;;17.30;;
28245;SDS011;15510;52.512;13.300;2024-01-06T12:46:51;37.87;;;19.27;;
28245;SDS011;15510;52.512;13.300;2024-01-06T12:49:19;31.87;;;17.37;;
28245;SDS011;15510;52.512;13.300;2024-01-06T12:51:44;31.60;;;17.80;;
28245;SDS011;15510;52.512;13.300;2024-01-06T12:54:10;30.33;;;16.40;;
28245;SDS011;15510;52.512;13.300;2024-01-06T12:56:36;30.23;;;16.20;;
28245;SDS011;15510;52.512;13.300;2024-01-06T12:59:02;29.67;;;16.07;;
28245;SDS011;15510;52.512;13.300;2024-01-06T13:01:28;30.67;;;16.93;;
28245;SDS011;15510;52.512;13.300;2024-01-06T13:03:53;29.10;;;16.93;;
28245;SDS011;15510;52.512;13.300;2024-01-06T13:06:20;34.30;;;17.00;;
28245;SDS011;15510;52.512;13.300;2024-01-06T13:09:00;29.90;;;15.90;;
28245;SDS011;15510;52.512;13.300;2024-01-06T13:11:31;32.13;;;16.83;;
28245;SDS011;15510;52.512;13.300;2024-01-06T13:13:57;31.00;;;17.57;;
28245;SDS011;15510;52.512;13.300;2024-01-06T13:16:23;30.63;;;17.20;;
28245;SDS011;15510;52.512;13.300;2024-01-06T13:18:49;28.93;;;16.60;;
28245;SDS011;15510;52.512;13.300;2024-01-06T13:21:14;30.40;;;16.53;;
28245;SDS011;15510;52.512;13.300;2024-01-06T13:23:40;32.30;;;16.60;;
28245;SDS011;15510;52.512;13.300;2024-01-06T13:26:06;29.90;;;15.83;;
28245;SDS011;15510;52.512;13.300;2024-01-06T13:28:33;27.83;;;16.13;;
28245;SDS011;15510;52.512;13.300;2024-01-06T13:31:00;30.17;;;15.63;;
28245;SDS011;15510;52.512;13.300;2024-01-06T13:33:26;29.07;;;15.57;;
28245;SDS011;15510;52.512;13.300;2024-01-06T13:35:51;30.00;;;16.03;;
28245;SDS011;15510;52.512;13.300;2024-01-06T13:38:17;27.00;;;15.67;;
28245;SDS011;15510;52.512;13.300;2024-01-06T13:40:43;27.53;;;15.53;;
28245;SDS011;15510;52.512;13.300;2024-01-06T13:43:12;26.63;;;15.40;;
28245;SDS011;15510;52.512;13.300;2024-01-06T13:45:41;27.83;;;15.27;;
28245;SDS011;15510;52.512;13.300;2024-01-06T13:48:11;37.63;;;16.20;;
28245;SDS011;15510;52.512;13.300;2024-01-06T13:50:37;29.90;;;16.33;;
28245;SDS011;15510;52.512;13.300;2024-01-06T13:53:03;32.60;;;15.27;;
28245;SDS011;15510;52.512;13.300;2024-01-06T13:55:29;25.50;;;14.43;;
28245;SDS011;15510;52.512;13.300;2024-01-06T13:57:55;23.07;;;14.93;;
28245;SDS011;15510;52.512;13.300;2024-01-06T14:00:21;25.43;;;14.57;;
28245;SDS011;15510;52.512;13.300;2024-01-06T14:02:47;28.90;;;15.60;;
28245;SDS011;15510;52.512;13.300;2024-01-06T14:05:12;23.13;;;14.17;;
28245;SDS011;15510;52.512;13.300;2024-01-06T14:07:38;29.30;;;14.53;;
28245;SDS011;15510;52.512;13.300;2024-01-06T14:10:05;25.33;;;14.77;;
28245;SDS011;15510;52.512;13.300;2024-01-06T14:12:33;24.27;;;14.10;;
28245;SDS011;15510;52.512;13.300;2024-01-06T14:15:01;25.83;;;14.20;;
28245;SDS011;15510;52.512;13.300;2024-01-06T14:17:28;28.50;;;14.77;;